Time;durP1;ratioP1;P1;durP2;ratioP2;P2;SDS_P1;SDS_P2;PMS_P1;PMS_P2;Temp;Humidity;BMP_temperature;BMP_pressure;BME280_temperature;BME280_humidity;BME280_pressure;Samples;Min_cycle;Max_cycle;Signal;HPM_P1;HPM_P2
2023/12/06 00:01:32;;;;;;;88.38;54.60;;;5.40;99.90;;;;;;5034127;28;20029;-54
2023/12/06 00:03:58;;;;;;;85.55;53.80;;;5.30;99.90;;;;;;5016035;28;20037;-54
2023/12/06 00:06:24;;;;;;;82.18;50.78;;;5.30;99.90;;;;;;5034269;28;20049;-53
2023/12/06 00:08:52;;;;;;;80.40;49.05;;;;;;;;;;4999047;28;20044;-54
2023/12/06 00:11:19;;;;;;;76.68;47.67;;;;;;;;;;5051370;28;20132;-54
2023/12/06 00:13:45;;;;;;;83.25;47.95;;;5.30;99.90;;;;;;5053674;28;20017;-53
2023/12/06 00:16:10;;;;;;;86.97;50.05;;;5.30;99.90;;;;;;5053868;28;20056;-53
2023/12/06 00:18:36;;;;;;;73.63;47.60;;;5.30;99.90;;;;;;5018479;28;20072;-54
2023/12/06 00:21:02;;;;;;;80.95;47.65;;;4.80;99.90;;;;;;5053702;28;20098;-53
2023/12/06 00:23:28;;;;;;;78.05;47.13;;;4.50;99.90;;;;;;5018599;28;20033;-55
2023/12/06 00:25:53;;;;;;;75.00;46.67;;;4.40;99.90;;;;;;5053573;28;20033;-53
2023/12/06 00:28:19;;;;;;;80.82;49.17;;;4.50;99.90;;;;;;5053825;28;20091;-54
2023/12/06 00:30:45;;;;;;;81.03;48.60;;;4.80;99.90;;;;;;5018152;28;20047;-54
2023/12/06 00:33:11;;;;;;;93.65;58.15;;;4.70;99.90;;;;;;5034748;28;20052;-53
2023/12/06 00:35:36;;;;;;;102.88;59.80;;;4.60;99.90;;;;;;5053456;28;20021;-53
2023/12/06 00:38:02;;;;;;;94.85;57.63;;;4.70;99.90;;;;;;5034411;28;20040;-52
2023/12/06 00:40:28;;;;;;;113.60;66.10;;;4.70;99.90;;;;;;5053548;28;20032;-55
2023/12/06 00:42:54;;;;;;;97.18;58.47;;;4.80;99.90;;;;;;5044573;28;20461;-53
2023/12/06 00:45:20;;;;;;;97.63;58.28;;;4.70;99.90;;;;;;5033382;28;20037;-53
2023/12/06 00:47:46;;;;;;;92.88;55.55;;;4.80;99.90;;;;;;5033234;28;20029;-55
2023/12/06 00:50:11;;;;;;;107.28;64.18;;;4.90;99.90;;;;;;4998171;28;20045;-53
2023/12/06 00:52:37;;;;;;;104.13;62.63;;;5.00;99.90;;;;;;5035256;28;20531;-52
2023/12/06 00:55:04;;;;;;;91.60;53.10;;;5.20;99.90;;;;;;5034174;28;20041;-54
2023/12/06 00:57:29;;;;;;;82.47;50.03;;;5.20;99.90;;;;;;5053246;28;20032;-54
2023/12/06 00:59:55;;;;;;;102.00;58.40;;;5.20;99.90;;;;;;5052822;28;20424;-52
2023/12/06 01:02:21;;;;;;;118.50;67.90;;;;;;;;;;5017707;28;20033;-52
2023/12/06 01:04:50;;;;;;;108.30;61.67;;;;;;;;;;5052877;28;20119;-54
2023/12/06 01:07:17;;;;;;;81.68;46.00;;;5.70;99.90;;;;;;5053245;28;20419;-52
2023/12/06 01:09:44;;;;;;;70.85;44.10;;;5.50;99.90;;;;;;5052299;28;20473;-54
2023/12/06 01:12:10;;;;;;;67.38;39.17;;;5.60;99.90;;;;;;5051528;28;20033;-53
2023/12/06 01:14:36;;;;;;;64.57;40.22;;;5.60;99.90;;;;;;5052630;28;20025;-54
2023/12/06 01:17:02;;;;;;;69.07;40.95;;;5.60;99.90;;;;;;5052766;28;20029;-54
2023/12/06 01:19:27;;;;;;;64.93;40.72;;;5.60;99.90;;;;;;5052621;28;20031;-52
2023/12/06 01:21:53;;;;;;;69.13;41.33;;;5.70;99.90;;;;;;5017119;28;20041;-53
2023/12/06 01:24:19;;;;;;;64.25;39.97;;;5.60;99.90;;;;;;5052967;28;20029;-53
2023/12/06 01:26:45;;;;;;;61.33;39.22;;;5.60;99.90;;;;;;5052349;28;20035;-54
2023/12/06 01:29:11;;;;;;;61.03;39.45;;;5.60;99.90;;;;;;5052071;28;20029;-53
2023/12/06 01:31:38;;;;;;;51.67;33.78;;;5.70;99.90;;;;;;5052186;28;20078;-53
2023/12/06 01:34:05;;;;;;;58.38;33.75;;;5.70;99.90;;;;;;5052552;28;20029;-55
2023/12/06 01:36:32;;;;;;;53.30;34.03;;;5.60;99.90;;;;;;5052380;28;20056;-54
2023/12/06 01:38:58;;;;;;;49.25;32.97;;;5.60;99.90;;;;;;5052595;28;20082;-53
2023/12/06 01:41:23;;;;;;;51.63;32.78;;;5.60;99.90;;;;;;5052538;28;20037;-54
2023/12/06 01:43:49;;;;;;;54.67;34.15;;;5.50;99.90;;;;;;5033248;28;20025;-54
2023/12/06 01:46:15;;;;;;;57.92;35.38;;;5.50;99.90;;;;;;5052161;28;20025;-54
2023/12/06 01:48:43;;;;;;;58.38;37.67;;;5.50;99.90;;;;;;5052143;28;20032;-55
2023/12/06 01:51:09;;;;;;;58.65;37.85;;;5.50;99.90;;;;;;5051232;28;20040;-55
2023/12/06 01:53:35;;;;;;;64.63;40.97;;;5.50;99.90;;;;;;5052019;28;20029;-53
2023/12/06 01:56:02;;;;;;;56.67;35.58;;;5.60;99.90;;;;;;5051731;28;20669;-54
2023/12/06 01:58:29;;;;;;;55.55;34.90;;;5.60;99.90;;;;;;5051941;28;20018;-54
2023/12/06 02:00:55;;;;;;;53.30;33.72;;;5.60;99.90;;;;;;5051808;28;20112;-53
2023/12/06 02:03:22;;;;;;;55.08;34.20;;;5.70;99.90;;;;;;5052407;28;20025;-54
2023/12/06 02:05:48;;;;;;;45.97;31.33;;;;;;;;;;5051827;28;20473;-54
2023/12/06 02:08:14;;;;;;;42.33;28.67;;;5.60;99.90;;;;;;5051619;28;20021;-53
2023/12/06 02:10:39;;;;;;;44.72;28.83;;;5.40;99.90;;;;;;5045531;28;20132;-56
2023/12/06 02:13:05;;;;;;;42.28;27.52;;;5.40;99.90;;;;;;5048097;28;20071;-53
2023/12/06 02:15:31;;;;;;;38.67;26.17;;;5.40;99.90;;;;;;5033121;28;20037;-53
2023/12/06 02:17:57;;;;;;;40.03;27.38;;;5.50;99.90;;;;;;5032686;28;20108;-52
2023/12/06 02:20:24;;;;;;;40.28;26.33;;;5.50;99.90;;;;;;5052165;28;20036;-54
2023/12/06 02:22:52;;;;;;;37.33;26.80;;;5.50;99.90;;;;;;5051588;28;20021;-53
2023/12/06 02:25:18;;;;;;;44.25;25.95;;;5.20;99.90;;;;;;5051644;28;20036;-52
2023/12/06 02:27:45;;;;;;;34.13;23.88;;;5.30;99.90;;;;;;5016173;28;20033;-54
2023/12/06 02:30:12;;;;;;;37.83;25.30;;;5.40;99.90;;;;;;5051419;28;20073;-53
2023/12/06 02:32:38;;;;;;;36.38;24.92;;;5.40;99.90;;;;;;5051744;28;20132;-53
2023/12/06 02:35:10;;;;;;;36.30;23.10;;;5.40;99.90;;;;;;5051462;28;20025;-54
2023/12/06 02:37:36;;;;;;;37.17;25.27;;;;;;;;;;5017642;28;20124;-53
2023/12/06 02:40:04;;;;;;;36.88;26.75;;;5.30;99.90;;;;;;5051932;28;20384;-55
2023/12/06 02:42:30;;;;;;;39.88;26.58;;;;;;;;;;5016101;28;20044;-54
2023/12/06 02:44:56;;;;;;;39.83;27.65;;;;;;;;;;5032663;28;20404;-52
2023/12/06 02:47:22;;;;;;;36.75;26.13;;;;;;;;;;5051849;28;20040;-52
2023/12/06 02:49:48;;;;;;;40.47;27.77;;;5.50;99.90;;;;;;5051219;28;20044;-54
2023/12/06 02:52:15;;;;;;;39.75;25.27;;;5.60;99.90;;;;;;5051189;28;20025;-53
2023/12/06 02:54:41;;;;;;;39.05;25.17;;;5.60;99.90;;;;;;5051344;28;20472;-53
2023/12/06 02:57:07;;;;;;;37.22;25.13;;;5.40;99.90;;;;;;5051628;28;20029;-53
2023/12/06 02:59:32;;;;;;;39.85;25.73;;;5.10;99.90;;;;;;5051296;28;20021;-54
2023/12/06 03:01:58;;;;;;;37.05;24.77;;;5.10;99.90;;;;;;5051093;28;20040;-53
2023/12/06 03:04:24;;;;;;;37.58;23.85;;;5.10;99.90;;;;;;5051385;28;20021;-55
2023/12/06 03:06:49;;;;;;;37.33;25.30;;;5.10;99.90;;;;;;5051395;28;20457;-55
2023/12/06 03:09:15;;;;;;;40.05;24.63;;;5.00;99.90;;;;;;5032517;28;20128;-54
2023/12/06 03:11:41;;;;;;;39.83;26.70;;;5.00;99.90;;;;;;5050912;28;20056;-52
2023/12/06 03:14:06;;;;;;;36.88;24.73;;;5.00;99.90;;;;;;5051610;28;20021;-53
2023/12/06 03:16:33;;;;;;;38.13;25.98;;;5.00;99.90;;;;;;5051207;28;20032;-52
2023/12/06 03:19:03;;;;;;;43.50;26.23;;;5.10;99.90;;;;;;5051333;28;20108;-53
2023/12/06 03:21:29;;;;;;;36.97;25.58;;;4.90;99.90;;;;;;5051144;28;20049;-53
2023/12/06 03:23:55;;;;;;;38.83;27.35;;;5.00;99.90;;;;;;5032331;28;20471;-54
2023/12/06 03:26:21;;;;;;;49.72;28.38;;;5.00;99.90;;;;;;5051148;28;20075;-53
2023/12/06 03:28:46;;;;;;;40.33;28.00;;;4.90;99.90;;;;;;5050946;28;20435;-55
2023/12/06 03:31:12;;;;;;;45.20;28.25;;;5.00;99.90;;;;;;5050393;28;20044;-53
2023/12/06 03:33:38;;;;;;;38.13;28.60;;;5.00;99.90;;;;;;5050624;28;20034;-53
2023/12/06 03:36:04;;;;;;;41.47;28.83;;;5.00;99.90;;;;;;5054094;28;20033;-53
2023/12/06 03:38:29;;;;;;;45.70;27.58;;;4.90;99.90;;;;;;5054242;28;20033;-54
2023/12/06 03:40:55;;;;;;;42.13;28.80;;;4.80;99.90;;;;;;5035556;28;20029;-54
2023/12/06 03:43:21;;;;;;;46.08;28.63;;;4.70;99.90;;;;;;5054563;28;20033;-54
2023/12/06 03:45:46;;;;;;;37.55;26.33;;;4.70;99.90;;;;;;5054454;28;20028;-55
2023/12/06 03:48:12;;;;;;;44.97;26.85;;;4.80;99.90;;;;;;5035475;28;20045;-53
2023/12/06 03:50:38;;;;;;;39.00;26.13;;;4.70;99.90;;;;;;5054082;28;20031;-55
2023/12/06 03:53:04;;;;;;;37.63;25.98;;;4.60;99.90;;;;;;5054207;28;20033;-54
2023/12/06 03:55:29;;;;;;;41.20;25.67;;;4.60;99.90;;;;;;5054119;28;20108;-54
2023/12/06 03:57:55;;;;;;;37.17;24.98;;;4.50;99.90;;;;;;5054037;28;20114;-53
2023/12/06 04:00:21;;;;;;;39.33;25.27;;;4.60;99.90;;;;;;5035403;28;20037;-53
2023/12/06 04:02:46;;;;;;;39.53;25.30;;;4.50;99.90;;;;;;5054095;28;20040;-53
2023/12/06 04:05:12;;;;;;;40.53;24.77;;;4.40;99.90;;;;;;5054057;28;20036;-53
2023/12/06 04:07:39;;;;;;;44.83;26.48;;;4.30;99.90;;;;;;5053859;28;20078;-52
2023/12/06 04:10:05;;;;;;;38.63;26.73;;;4.40;99.90;;;;;;5053772;28;20037;-53
2023/12/06 04:12:31;;;;;;;38.55;26.85;;;4.40;99.90;;;;;;5054093;28;20025;-54
2023/12/06 04:14:57;;;;;;;39.90;24.98;;;4.40;99.90;;;;;;5053677;28;20056;-54
2023/12/06 04:17:22;;;;;;;37.88;24.27;;;4.50;99.90;;;;;;5053858;28;20099;-54
2023/12/06 04:19:48;;;;;;;40.15;23.88;;;4.40;99.90;;;;;;5053945;28;20071;-54
2023/12/06 04:22:14;;;;;;;34.90;21.35;;;4.50;99.90;;;;;;5053810;28;20078;-53
2023/12/06 04:24:39;;;;;;;35.42;22.65;;;4.50;99.90;;;;;;5053565;28;20095;-54
2023/12/06 04:27:06;;;;;;;32.95;22.45;;;;;;;;;;5034864;28;20091;-53
2023/12/06 04:29:32;;;;;;;33.88;22.70;;;;;;;;;;5053691;28;20067;-53
2023/12/06 04:31:58;;;;;;;33.92;22.05;;;4.60;99.90;;;;;;5053014;28;20559;-54
2023/12/06 04:34:23;;;;;;;29.92;21.58;;;4.50;99.90;;;;;;5054200;28;20056;-55
2023/12/06 04:36:50;;;;;;;34.00;21.38;;;;;;;;;;5034951;28;20043;-53
2023/12/06 04:39:16;;;;;;;29.02;20.77;;;;;;;;;;5053530;28;20480;-54
2023/12/06 04:41:42;;;;;;;31.08;20.98;;;;;;;;;;5053375;28;20029;-55
2023/12/06 04:44:08;;;;;;;31.27;20.17;;;;;;;;;;5053698;28;20040;-54
2023/12/06 04:46:34;;;;;;;28.95;20.83;;;4.70;99.90;;;;;;5053144;28;20104;-54
2023/12/06 04:48:59;;;;;;;29.52;20.08;;;4.70;99.90;;;;;;5053171;28;20516;-53
2023/12/06 04:51:25;;;;;;;32.42;20.77;;;4.80;99.90;;;;;;5053267;28;20048;-54
2023/12/06 04:53:51;;;;;;;36.35;21.33;;;4.90;99.90;;;;;;5053057;28;20036;-54
2023/12/06 04:56:16;;;;;;;32.42;20.27;;;4.70;99.90;;;;;;5053066;28;20131;-54
2023/12/06 04:58:42;;;;;;;31.80;21.52;;;4.60;99.90;;;;;;5052955;28;20025;-55
2023/12/06 05:01:08;;;;;;;31.98;21.20;;;4.60;99.90;;;;;;5034063;28;20043;-53
2023/12/06 05:03:34;;;;;;;31.70;20.95;;;4.80;99.90;;;;;;5034131;28;20045;-54
2023/12/06 05:05:59;;;;;;;31.48;20.77;;;4.90;99.90;;;;;;5052694;28;20389;-53
2023/12/06 05:08:25;;;;;;;33.65;22.15;;;4.90;99.90;;;;;;5052685;28;20055;-54
2023/12/06 05:10:51;;;;;;;34.88;22.20;;;5.00;99.90;;;;;;5051886;28;20057;-53
2023/12/06 05:13:17;;;;;;;32.53;21.15;;;4.70;99.90;;;;;;5052842;28;20115;-53
2023/12/06 05:15:43;;;;;;;35.22;20.83;;;4.70;99.90;;;;;;5046818;28;20026;-54
2023/12/06 05:18:09;;;;;;;30.02;21.13;;;4.80;99.90;;;;;;5014256;28;20550;-54
2023/12/06 05:20:34;;;;;;;36.35;23.60;;;4.80;99.90;;;;;;5037298;28;20035;-53
2023/12/06 05:23:01;;;;;;;31.02;21.00;;;4.90;99.90;;;;;;5052427;28;20116;-52
2023/12/06 05:25:26;;;;;;;32.53;21.35;;;4.90;99.90;;;;;;5052479;28;20028;-54
2023/12/06 05:27:52;;;;;;;33.28;22.05;;;;;;;;;;5040156;28;20033;-53
2023/12/06 05:30:18;;;;;;;30.63;20.25;;;5.40;99.90;;;;;;5047282;28;20041;-52
2023/12/06 05:32:44;;;;;;;29.25;20.55;;;5.40;99.90;;;;;;5031407;28;20502;-54
2023/12/06 05:35:10;;;;;;;31.02;21.00;;;5.30;99.90;;;;;;5043126;28;20025;-54
2023/12/06 05:37:36;;;;;;;32.72;21.92;;;5.30;99.90;;;;;;5041911;28;20492;-53
2023/12/06 05:40:03;;;;;;;32.55;20.55;;;5.40;99.90;;;;;;5036087;28;20025;-54
2023/12/06 05:42:29;;;;;;;30.42;20.83;;;;;;;;;;5013815;28;20045;-53
2023/12/06 05:44:55;;;;;;;29.90;19.55;;;;;;;;;;5045981;28;20037;-53
2023/12/06 05:47:21;;;;;;;32.25;20.38;;;;;;;;;;5046473;28;20117;-53
2023/12/06 05:49:48;;;;;;;30.35;19.80;;;;;;;;;;5025736;28;20041;-54
2023/12/06 05:52:14;;;;;;;29.35;20.20;;;;;;;;;;5026778;28;20068;-54
2023/12/06 05:54:40;;;;;;;28.15;19.83;;;;;;;;;;5012112;28;20041;-55
2023/12/06 05:57:06;;;;;;;24.98;18.33;;;;;;;;;;5051719;28;20384;-53
2023/12/06 05:59:32;;;;;;;28.40;19.08;;;;;;;;;;5049561;28;20037;-52
2023/12/06 06:01:59;;;;;;;26.58;18.63;;;;;;;;;;5051021;28;20032;-55
2023/12/06 06:04:26;;;;;;;30.33;20.27;;;;;;;;;;5051387;28;20033;-55
2023/12/06 06:06:52;;;;;;;26.88;18.83;;;;;;;;;;5024886;28;20040;-54
2023/12/06 06:09:19;;;;;;;28.55;18.48;;;5.20;99.90;;;;;;5056774;28;20041;-53
2023/12/06 06:11:47;;;;;;;27.17;19.58;;;;;;;;;;5052036;28;20040;-56
2023/12/06 06:14:12;;;;;;;30.58;20.02;;;5.10;99.90;;;;;;5050702;28;20123;-53
2023/12/06 06:16:38;;;;;;;27.83;19.23;;;;;;;;;;5054792;28;20424;-55
2023/12/06 06:19:04;;;;;;;26.92;19.15;;;4.90;99.90;;;;;;5052010;28;20069;-55
2023/12/06 06:21:30;;;;;;;33.70;19.85;;;4.70;99.90;;;;;;5058047;28;20460;-53
2023/12/06 06:23:55;;;;;;;33.05;20.92;;;4.60;99.90;;;;;;5059078;28;20672;-53
2023/12/06 06:26:21;;;;;;;41.95;23.65;;;4.70;99.90;;;;;;5051298;28;20033;-53
2023/12/06 06:28:48;;;;;;;29.52;20.17;;;4.60;99.90;;;;;;5017858;28;20072;-54
2023/12/06 06:31:13;;;;;;;34.17;22.30;;;4.60;99.90;;;;;;5058329;28;20401;-54
2023/12/06 06:33:39;;;;;;;33.50;21.63;;;4.70;99.90;;;;;;5053688;28;20040;-57
2023/12/06 06:36:05;;;;;;;34.70;21.13;;;4.60;99.90;;;;;;5016739;28;20055;-52
2023/12/06 06:38:31;;;;;;;34.80;22.85;;;4.50;99.90;;;;;;5053536;28;20358;-52
2023/12/06 06:40:57;;;;;;;33.75;20.65;;;4.50;99.90;;;;;;5052796;28;20100;-52
2023/12/06 06:43:23;;;;;;;35.65;21.73;;;4.50;99.90;;;;;;5015934;28;20620;-52
2023/12/06 06:45:48;;;;;;;33.63;20.70;;;4.60;99.90;;;;;;5051550;28;20036;-53
2023/12/06 06:48:14;;;;;;;31.15;21.83;;;4.70;99.90;;;;;;5016323;28;20123;-52
2023/12/06 06:50:40;;;;;;;32.58;20.35;;;4.70;99.90;;;;;;5051200;28;20087;-54
2023/12/06 06:53:09;;;;;;;31.35;21.02;;;4.60;99.90;;;;;;5016334;28;20033;-53
2023/12/06 06:55:35;;;;;;;33.35;20.88;;;4.60;99.90;;;;;;5051405;28;20029;-53
2023/12/06 06:58:03;;;;;;;31.15;20.25;;;4.60;99.90;;;;;;5051296;28;20028;-53
2023/12/06 07:00:29;;;;;;;32.13;21.52;;;4.50;99.90;;;;;;5051780;28;20465;-53
2023/12/06 07:02:54;;;;;;;34.88;23.90;;;4.40;99.90;;;;;;5051305;28;20108;-53
2023/12/06 07:05:20;;;;;;;36.33;26.33;;;4.30;99.90;;;;;;5051267;28;20395;-52
2023/12/06 07:07:46;;;;;;;67.28;38.20;;;4.40;99.90;;;;;;5051192;28;20048;-52
2023/12/06 07:10:12;;;;;;;45.85;27.55;;;4.40;99.90;;;;;;5055136;28;20115;-53
2023/12/06 07:12:39;;;;;;;176.90;70.82;;;4.40;99.90;;;;;;5054805;28;20029;-54
2023/12/06 07:15:05;;;;;;;142.73;62.20;;;4.50;99.90;;;;;;5020372;28;20037;-52
2023/12/06 07:17:31;;;;;;;229.48;102.80;;;4.50;99.90;;;;;;5054979;28;20090;-53
2023/12/06 07:19:58;;;;;;;124.00;59.17;;;4.60;99.90;;;;;;5019607;28;20481;-55
2023/12/06 07:22:24;;;;;;;112.82;65.30;;;4.60;99.90;;;;;;5054757;28;20029;-53
2023/12/06 07:24:49;;;;;;;61.53;43.00;;;4.70;99.90;;;;;;5054791;28;20417;-54
2023/12/06 07:27:15;;;;;;;54.67;37.90;;;;;;;;;;5019557;28;20041;-53
2023/12/06 07:29:43;;;;;;;88.60;44.65;;;;;;;;;;5054568;28;20025;-53
2023/12/06 07:32:08;;;;;;;43.25;25.50;;;5.20;99.90;;;;;;5054483;28;20045;-53
2023/12/06 07:34:34;;;;;;;33.80;21.05;;;5.20;99.90;;;;;;5054580;28;20031;-52
2023/12/06 07:37:00;;;;;;;39.65;24.85;;;5.30;99.90;;;;;;5053864;28;20113;-53
2023/12/06 07:39:25;;;;;;;37.45;23.58;;;5.40;99.90;;;;;;5049618;28;20037;-52
2023/12/06 07:41:51;;;;;;;36.25;22.58;;;5.50;99.90;;;;;;5000959;28;20040;-52
2023/12/06 07:44:20;;;;;;;30.05;18.50;;;5.60;99.90;;;;;;5051496;28;20041;-52
2023/12/06 07:46:46;;;;;;;52.47;28.00;;;5.40;99.90;;;;;;5041688;28;20050;-52
2023/12/06 07:49:12;;;;;;;41.15;25.27;;;5.50;99.90;;;;;;5034453;28;20042;-51
2023/12/06 07:51:38;;;;;;;33.90;24.13;;;5.10;99.90;;;;;;5034423;28;20037;-52
2023/12/06 07:54:04;;;;;;;33.78;22.08;;;5.20;99.90;;;;;;5048451;28;20036;-52
2023/12/06 07:56:30;;;;;;;33.58;21.77;;;5.30;99.90;;;;;;5050701;28;20028;-52
2023/12/06 07:59:00;;;;;;;31.00;19.95;;;;;;;;;;5015263;28;20060;-52
2023/12/06 08:01:31;;;;;;;32.55;20.90;;;;;;;;;;5054221;28;20388;-52
2023/12/06 08:03:57;;;;;;;31.20;20.80;;;4.80;99.90;;;;;;5054251;28;20385;-52
2023/12/06 08:06:23;;;;;;;26.25;19.20;;;4.90;99.90;;;;;;5053330;28;20454;-52
2023/12/06 08:08:53;;;;;;;34.60;20.75;;;;;;;;;;5051204;28;20048;-52
2023/12/06 08:11:20;;;;;;;31.15;20.20;;;5.40;99.90;;;;;;5054015;28;20385;-52
2023/12/06 08:13:47;;;;;;;29.70;20.35;;;5.30;99.90;;;;;;5053663;28;20021;-52
2023/12/06 08:16:13;;;;;;;31.48;20.80;;;5.30;99.90;;;;;;5054336;28;20420;-53
2023/12/06 08:18:39;;;;;;;28.52;20.70;;;5.40;99.90;;;;;;5054184;28;20384;-52
2023/12/06 08:21:08;;;;;;;28.30;21.50;;;5.40;99.90;;;;;;5052274;28;20037;-52
2023/12/06 08:23:34;;;;;;;33.58;21.73;;;5.50;99.90;;;;;;5053712;28;20055;-52
2023/12/06 08:26:00;;;;;;;34.95;22.27;;;5.50;99.90;;;;;;5052778;28;20111;-53
2023/12/06 08:28:26;;;;;;;31.33;20.85;;;5.60;99.90;;;;;;5050390;28;20028;-52
2023/12/06 08:30:52;;;;;;;26.88;18.67;;;5.60;99.90;;;;;;5034496;28;20041;-52
2023/12/06 08:33:19;;;;;;;29.63;21.08;;;5.60;99.90;;;;;;5053473;28;20549;-53
2023/12/06 08:35:46;;;;;;;27.13;20.08;;;5.70;99.90;;;;;;5053801;28;20040;-52
2023/12/06 08:38:12;;;;;;;27.23;19.00;;;5.60;99.90;;;;;;5018438;28;20041;-52
2023/12/06 08:40:37;;;;;;;28.05;21.00;;;5.50;99.90;;;;;;5053236;28;20105;-52
2023/12/06 08:43:03;;;;;;;33.22;22.15;;;5.60;99.90;;;;;;5018221;28;20091;-55
2023/12/06 08:45:29;;;;;;;24.80;17.50;;;5.50;99.90;;;;;;5041436;28;20187;-52
2023/12/06 08:47:54;;;;;;;31.90;22.33;;;5.40;99.90;;;;;;5043097;28;20021;-52
2023/12/06 08:50:21;;;;;;;21.63;14.35;;;5.50;99.90;;;;;;5043146;28;20458;-52
2023/12/06 08:52:46;;;;;;;32.50;23.70;;;5.30;99.90;;;;;;5041382;28;20056;-53
2023/12/06 08:55:13;;;;;;;27.45;18.50;;;5.40;99.90;;;;;;5044239;28;20477;-52
2023/12/06 08:57:39;;;;;;;26.23;19.38;;;5.70;99.90;;;;;;5028034;28;20029;-52
2023/12/06 09:00:07;;;;;;;29.15;20.60;;;5.10;99.90;;;;;;5025571;28;20038;-52
2023/12/06 09:02:36;;;;;;;33.95;23.27;;;5.10;99.90;;;;;;5018751;28;20056;-55
2023/12/06 09:05:01;;;;;;;31.10;21.35;;;5.00;99.90;;;;;;5012126;28;21189;-51
2023/12/06 09:07:27;;;;;;;28.35;19.17;;;4.90;99.90;;;;;;4978032;28;20029;-52
2023/12/06 09:09:53;;;;;;;29.35;20.42;;;5.00;99.90;;;;;;5010546;28;20057;-52
2023/12/06 09:12:20;;;;;;;38.47;26.35;;;5.00;99.90;;;;;;4994338;28;20041;-51
2023/12/06 09:14:47;;;;;;;38.15;26.25;;;4.90;99.90;;;;;;5018481;28;20100;-52
2023/12/06 09:17:12;;;;;;;33.53;24.02;;;5.00;99.90;;;;;;5030392;28;20478;-51
2023/12/06 09:19:38;;;;;;;29.50;22.10;;;5.10;99.90;;;;;;5019863;28;20034;-52
2023/12/06 09:22:05;;;;;;;25.65;17.35;;;5.20;99.90;;;;;;5010392;28;20037;-52
2023/12/06 09:24:31;;;;;;;31.80;23.25;;;5.10;99.90;;;;;;5010633;28;20116;-51
2023/12/06 09:26:57;;;;;;;34.20;24.65;;;5.20;99.90;;;;;;5017770;28;20117;-52
2023/12/06 09:29:23;;;;;;;32.45;22.15;;;;;;;;;;5013439;28;20055;-51
2023/12/06 09:31:49;;;;;;;27.40;21.92;;;5.30;99.90;;;;;;5046609;28;20099;-53
2023/12/06 09:34:15;;;;;;;24.75;19.38;;;;;;;;;;5047507;28;20484;-52
2023/12/06 09:36:41;;;;;;;23.42;18.45;;;5.30;99.90;;;;;;5017054;28;20044;-52
2023/12/06 09:39:07;;;;;;;24.77;18.42;;;5.40;99.90;;;;;;5051691;28;20029;-52
2023/12/06 09:41:34;;;;;;;26.45;19.15;;;5.20;99.90;;;;;;5052201;28;20029;-52
2023/12/06 09:44:00;;;;;;;25.23;18.33;;;5.10;99.90;;;;;;5043050;28;20084;-52
2023/12/06 09:46:26;;;;;;;23.70;18.35;;;5.10;99.90;;;;;;5038964;28;20474;-52
2023/12/06 09:48:52;;;;;;;25.33;18.70;;;5.10;99.90;;;;;;5049192;28;20029;-51
2023/12/06 09:51:19;;;;;;;22.83;16.60;;;5.20;99.90;;;;;;5052337;28;20025;-52
2023/12/06 09:53:45;;;;;;;21.95;16.92;;;;;;;;;;5052113;28;20021;-51
2023/12/06 09:56:13;;;;;;;22.80;17.42;;;;;;;;;;5051573;28;20025;-52
2023/12/06 09:58:39;;;;;;;19.02;14.93;;;;;;;;;;5051676;28;20037;-51
2023/12/06 10:01:05;;;;;;;20.65;15.07;;;;;;;;;;5051926;28;20025;-52
2023/12/06 10:03:31;;;;;;;20.30;15.00;;;5.00;99.90;;;;;;5016922;28;20123;-51
2023/12/06 10:05:59;;;;;;;24.38;18.08;;;5.00;99.90;;;;;;5033068;28;20033;-52
2023/12/06 10:08:25;;;;;;;16.05;12.55;;;4.90;99.90;;;;;;5051923;28;20029;-51
2023/12/06 10:11:08;;;;;;;21.40;14.60;;;4.80;99.90;;;;;;5033179;28;20067;-51
2023/12/06 10:13:39;;;;;;;14.90;11.05;;;4.70;99.90;;;;;;5051854;28;20029;-51
2023/12/06 10:16:20;;;;;;;19.55;15.68;;;4.70;99.90;;;;;;5051717;28;20025;-52
2023/12/06 10:18:48;;;;;;;18.77;14.45;;;4.70;99.90;;;;;;5037051;28;20103;-51
2023/12/06 10:21:17;;;;;;;16.48;12.05;;;4.70;99.90;;;;;;5031726;28;20033;-52
2023/12/06 10:23:55;;;;;;;16.67;13.27;;;4.60;99.90;;;;;;5032278;28;20436;-52
2023/12/06 10:26:25;;;;;;;27.02;16.35;;;4.60;99.90;;;;;;5031597;28;20095;-51
2023/12/06 10:28:51;;;;;;;23.55;14.15;;;4.60;99.90;;;;;;5031792;28;20021;-51
2023/12/06 10:31:17;;;;;;;20.15;11.85;;;4.60;99.90;;;;;;5031460;28;20045;-51
2023/12/06 10:33:44;;;;;;;21.88;19.20;;;4.40;99.90;;;;;;5031630;28;20040;-51
2023/12/06 10:36:11;;;;;;;16.25;12.93;;;4.30;99.90;;;;;;5031853;28;20026;-52
2023/12/06 10:38:37;;;;;;;19.35;13.40;;;4.30;99.90;;;;;;5031567;28;20496;-51
2023/12/06 10:41:06;;;;;;;17.58;12.85;;;4.40;99.90;;;;;;5036497;28;20043;-52
2023/12/06 10:43:34;;;;;;;25.02;14.98;;;4.40;99.90;;;;;;5024473;28;20137;-53
2023/12/06 10:45:59;;;;;;;17.02;13.45;;;4.30;99.90;;;;;;5055566;28;20025;-52
2023/12/06 10:48:27;;;;;;;21.60;12.68;;;4.40;99.90;;;;;;5055460;28;20390;-52
2023/12/06 10:50:54;;;;;;;14.35;11.80;;;4.50;99.90;;;;;;5036613;28;20049;-52
2023/12/06 10:53:21;;;;;;;17.30;12.50;;;4.50;99.90;;;;;;5035181;28;20041;-52
2023/12/06 10:55:47;;;;;;;18.35;14.25;;;4.60;99.90;;;;;;5043466;28;20024;-52
2023/12/06 10:58:17;;;;;;;21.80;14.63;;;4.40;99.90;;;;;;5035457;28;20041;-53
2023/12/06 11:00:43;;;;;;;22.70;15.43;;;4.40;99.90;;;;;;5039473;28;20029;-52
2023/12/06 11:03:10;;;;;;;38.97;22.65;;;4.20;99.90;;;;;;5054125;28;20021;-51
2023/12/06 11:05:58;;;;;;;30.30;20.63;;;4.50;99.90;;;;;;5038924;28;20049;-52
2023/12/06 11:09:09;;;;;;;24.55;17.55;;;4.50;99.90;;;;;;5042121;28;20435;-51
2023/12/06 11:11:50;;;;;;;34.60;22.65;;;4.70;99.90;;;;;;5038736;28;20045;-51
2023/12/06 11:14:44;;;;;;;16.15;13.13;;;4.70;99.90;;;;;;5040864;28;20361;-52
2023/12/06 11:17:37;;;;;;;24.00;17.83;;;4.70;99.90;;;;;;5036648;28;20532;-52
2023/12/06 11:20:03;;;;;;;15.85;12.25;;;4.60;99.90;;;;;;5039852;28;20030;-52
2023/12/06 11:22:30;;;;;;;24.42;20.00;;;;;;;;;;5038176;28;20033;-54
2023/12/06 11:24:56;;;;;;;21.25;17.58;;;4.70;99.90;;;;;;5039236;28;20485;-54
2023/12/06 11:27:22;;;;;;;20.95;16.65;;;4.70;99.90;;;;;;5038526;28;20041;-53
2023/12/06 11:29:49;;;;;;;18.98;14.90;;;4.70;99.90;;;;;;5043554;28;20040;-54
2023/12/06 11:32:15;;;;;;;21.27;17.17;;;4.70;99.90;;;;;;4978207;28;20054;-54
2023/12/06 11:34:40;;;;;;;19.65;16.75;;;4.80;99.90;;;;;;5021544;28;20034;-56
2023/12/06 11:37:16;;;;;;;18.15;14.43;;;4.90;99.90;;;;;;5031445;28;20033;-53
2023/12/06 11:39:43;;;;;;;16.42;13.48;;;;;;;;;;5034686;28;20037;-53
2023/12/06 11:42:09;;;;;;;16.77;13.45;;;;;;;;;;5048065;28;20111;-53
2023/12/06 11:44:35;;;;;;;14.85;12.38;;;;;;;;;;5054398;28;20112;-53
2023/12/06 11:47:07;;;;;;;17.33;14.95;;;;;;;;;;5053989;28;20507;-54
2023/12/06 11:49:34;;;;;;;16.85;14.40;;;;;;;;;;5040047;28;20045;-51
2023/12/06 11:52:05;;;;;;;15.00;13.45;;;;;;;;;;5034484;28;20549;-52
2023/12/06 11:54:32;;;;;;;15.80;13.87;;;;;;;;;;5015673;28;20037;-53
2023/12/06 11:57:08;;;;;;;15.90;12.75;;;5.10;99.90;;;;;;5034254;28;20026;-52
2023/12/06 11:59:34;;;;;;;15.45;13.40;;;5.00;99.90;;;;;;5034335;28;20764;-53
2023/12/06 12:02:00;;;;;;;13.90;11.48;;;5.00;99.90;;;;;;5047889;28;20025;-54
2023/12/06 12:04:27;;;;;;;17.55;13.95;;;5.00;99.90;;;;;;5035304;28;20029;-53
2023/12/06 12:06:53;;;;;;;17.42;12.75;;;5.00;99.90;;;;;;5054449;28;20050;-52
2023/12/06 12:09:21;;;;;;;19.58;14.57;;;5.00;99.90;;;;;;5054244;28;20043;-53
2023/12/06 12:11:46;;;;;;;18.58;14.93;;;5.00;99.90;;;;;;5053602;28;20426;-54
2023/12/06 12:14:12;;;;;;;19.85;15.00;;;5.10;99.90;;;;;;5034090;28;20118;-54
2023/12/06 12:16:39;;;;;;;13.95;11.32;;;5.00;99.90;;;;;;5002213;28;20125;-52
2023/12/06 12:19:06;;;;;;;19.42;15.82;;;5.00;99.90;;;;;;5053914;28;20098;-53
2023/12/06 12:21:32;;;;;;;13.93;12.38;;;4.80;99.90;;;;;;5053740;28;20032;-53
2023/12/06 12:24:00;;;;;;;17.42;14.20;;;4.80;99.90;;;;;;5053788;28;20025;-53
2023/12/06 12:26:27;;;;;;;22.42;17.10;;;4.80;99.90;;;;;;5053810;28;20041;-51
2023/12/06 12:28:52;;;;;;;15.82;12.75;;;4.90;99.90;;;;;;5054055;28;20087;-52
2023/12/06 12:31:30;;;;;;;17.02;13.52;;;4.90;99.90;;;;;;5001727;28;20049;-51
2023/12/06 12:33:56;;;;;;;19.50;15.63;;;4.90;99.90;;;;;;5039003;28;20092;-52
2023/12/06 12:36:24;;;;;;;16.50;13.20;;;5.00;99.90;;;;;;5033689;28;20025;-52
2023/12/06 12:38:52;;;;;;;15.70;13.18;;;5.00;99.90;;;;;;5033451;28;20022;-52
2023/12/06 12:41:18;;;;;;;15.90;12.45;;;4.80;99.90;;;;;;4998641;28;20378;-53
2023/12/06 12:43:43;;;;;;;14.38;11.68;;;4.60;99.90;;;;;;4998314;28;20091;-53
2023/12/06 12:46:10;;;;;;;13.30;11.75;;;4.50;99.90;;;;;;5033539;28;20045;-52
2023/12/06 12:48:36;;;;;;;16.10;13.20;;;4.50;99.90;;;;;;5033260;28;20389;-54